Latest Coastal Weather Observations for Bairnsdale

IDV60701

Issued at 3:41 pm EDT Monday 27 March 2017 (issued every 10 minutes, with the page automatically refreshed every 10 minutes)

About coastal observations | Map of coastal stations | Coastal observations for VIC | Marine services | Other Formats
Station Details ID: 085279 Name: BAIRNSDALE AIRPORT Lat: -37.88 Lon: 147.57 Height: 49.4 m
Data from the previous 72 hours. | See also: Recent months at Bairnsdale
Date/Time
EDT
Temp
°C
Wind Pressure Rain since
9am
mm
Weather Cloud Vis
km
Sea
Height
m
Swell
Dir  Spd
kts
Gust
kts
hPa Trend Height
m
Period
s
Dir
27/03:30pm 34.6 NNW 15 21 1002.4 - 0.0 - - 10 - - - -
27/03:00pm 35.5 NNW 17 25 1002.0 - 0.0 - - 10 - - - -
27/02:48pm 37.0 NNW 17 27 1001.9 - 0.0 - - 10 - - - -
27/02:30pm 36.4 NW 19 28 1002.3 - 0.0 - - 10 - - - -
27/02:00pm 37.2 NW 17 26 1002.5 - 0.0 - - 10 - - - -
27/01:30pm 36.2 NNW 14 19 1002.7 - 0.0 - - 10 - - - -
27/01:00pm 34.7 NNW 14 22 1003.7 - 0.0 - - 10 - - - -
27/12:30pm 33.7 NNW 15 21 1004.2 - 0.0 - - 10 - - - -
27/12:00pm 34.7 NNW 15 21 1004.6 - 0.0 - - 10 - - - -
27/11:32am 34.3 NNW 15 25 1005.1 - 0.0 - - 10 - - - -
27/11:30am 34.4 NNW 14 20 1005.2 - 0.0 - - 10 - - - -
27/11:00am 32.7 NNW 9 15 1005.5 - 0.0 - - 10 - - - -
27/10:30am 30.3 N 8 11 1005.9 - 0.0 - - 10 - - - -
27/10:00am 26.6 NE 6 8 1006.3 - 0.0 - - 10 - - - -
27/09:30am 23.9 NE 5 7 1006.9 - 0.0 - - 10 - - - -
27/09:00am 23.9 NE 4 6 1007.2 - 0.0 - Mostly clear 10 - - - -
27/08:30am 20.9 NE 4 6 1007.6 - 0.0 - - 10 - - - -
27/08:00am 19.4 NE 7 9 1007.5 - 0.0 - - 10 - - - -
27/07:30am 17.3 NE 6 8 1007.6 - 0.0 - - 10 - - - -
27/07:00am 16.7 NE 8 11 1007.6 - 0.0 - - 10 - - - -
27/06:30am 15.6 NNE 5 6 1007.7 - 0.0 - - 10 - - - -
27/06:00am 15.1 N 5 6 1008.0 - 0.0 - Mostly clear 10 - - - -
27/05:30am 16.3 NNE 7 8 1008.1 - 0.0 - - 10 - - - -
27/05:00am 15.6 NNE 3 5 1008.2 - 0.0 - - 10 - - - -
27/04:44am 15.1 NE 1 4 1008.2 - 0.0 - - 8 - - - -
27/04:30am 15.0 NNE 3 5 1008.4 - 0.0 - - 4 - - - -
27/04:24am 14.8 NE 4 5 1008.5 - 0.0 - - 5 - - - -
27/04:00am 15.2 NNE 3 4 1008.9 - 0.0 - - 7 - - - -
27/03:52am 15.3 N 4 5 1008.9 - 0.0 - - 9 - - - -
27/03:30am 14.6 NNW 4 5 1009.5 - 0.0 - - 0.8 - - - -
27/03:00am 14.3 N 4 6 1010.0 - 0.0 - Mostly clear 0.5 - - - -
27/02:30am 14.5 NNE 3 3 1010.3 - 0.0 - Partly cloudy 0.2 - - - -
27/02:26am 14.7 NNE 3 3 1010.3 - 0.0 - Partly cloudy 0.3 - - - -
27/02:00am 14.8 NNE 3 4 1010.9 - 0.0 - Cloudy 0.2 - - - -
27/01:30am 15.1 N 2 3 1011.3 - 0.0 - Cloudy 0.2 - - - -
27/01:00am 15.7 NNW 4 6 1012.0 - 0.0 - Cloudy 0.1 - - - -
27/12:30am 15.2 CALM 0 2 1012.4 - 0.0 - Partly cloudy 0.2 - - - -
27/12:27am 15.9 WNW 1 3 1012.3 - 0.0 - Partly cloudy 0.2 - - - -
27/12:18am 15.9 WNW 2 3 1012.4 - 0.0 - Partly cloudy 0.5 - - - -
27/12:00am 16.0 NW 3 4 1012.8 - 0.0 - Partly cloudy 0.2 - - - -
 
Date/Time
EDT
Temp
°C
Wind Pressure Rain since
9am
mm
Weather Cloud Vis
km
Sea
Height
m
Swell
Dir  Spd
kts
Gust
kts
hPa Trend Height
m
Period
s
Dir
26/11:30pm 16.5 NW 4 5 1013.2 - 0.0 - Cloudy 0.1 - - - -
26/11:04pm 16.2 NW 3 5 1013.6 - 0.0 - Partly cloudy 0.1 - - - -
26/11:00pm 16.6 NW 3 4 1013.6 - 0.0 - Partly cloudy 0.2 - - - -
26/10:30pm 16.7 CALM 0 0 1013.9 - 0.0 - Partly cloudy 0.1 - - - -
26/10:00pm 16.9 CALM 0 0 1014.2 - 0.0 - - 0.6 - - - -
26/09:35pm 17.9 NE 2 3 1014.2 - 0.0 - - 5 - - - -
26/09:30pm 18.1 NE 3 4 1014.2 - 0.0 - - 10 - - - -
26/09:00pm 18.8 E 5 7 1014.1 - 0.0 - Mostly clear 10 - - - -
26/08:38pm 18.9 E 6 8 1014.0 - 0.0 - Partly cloudy 10 - - - -
26/08:30pm 18.9 E 6 8 1013.9 - 0.0 - Partly cloudy 10 - - - -
26/08:00pm 18.9 E 8 9 1013.8 - 0.0 - Cloudy 10 - - - -
26/07:30pm 18.7 ESE 6 9 1013.7 - 0.0 - Partly cloudy 10 - - - -
26/07:18pm 18.6 ESE 7 10 1013.6 - 0.0 - Partly cloudy 10 - - - -
26/07:00pm 18.7 ESE 8 10 1013.4 - 0.0 - Partly cloudy 10 - - - -
26/06:30pm 19.4 ESE 9 12 1013.3 - 0.0 - Partly cloudy 10 - - - -
26/06:00pm 20.0 SE 9 10 1013.0 - 0.0 - Partly cloudy 10 - - - -
26/05:30pm 21.0 ESE 10 12 1012.7 - 0.0 - - 10 - - - -
26/05:00pm 21.5 SE 12 14 1012.6 - 0.0 - - 10 - - - -
26/04:30pm 23.2 SE 11 14 1012.7 - 0.0 - - 10 - - - -
26/04:00pm 24.5 ESE 11 14 1012.8 - 0.0 - - 10 - - - -
26/03:30pm 23.9 SE 11 14 1012.8 - 0.0 - - 10 - - - -
26/03:00pm 25.6 SE 10 15 1013.0 - 0.0 - - 10 - - - -
26/02:30pm 25.5 SE 9 14 1013.3 - 0.0 - - 10 - - - -
26/02:00pm 25.7 SE 7 12 1013.8 - 0.0 - - 10 - - - -
26/01:30pm 24.6 SE 9 13 1014.2 - 0.0 - - 10 - - - -
26/01:00pm 25.0 ESE 9 12 1014.8 - 0.0 - - 10 - - - -
26/12:30pm 25.1 ESE 9 12 1015.2 - 0.0 - - 10 - - - -
26/12:00pm 24.8 SSE 5 8 1015.4 - 0.0 - - 10 - - - -
26/11:30am 25.2 E 4 7 1015.7 - 0.0 - - 10 - - - -
26/11:00am 24.4 NE 4 6 1015.7 - 0.0 - - 10 - - - -
26/10:30am 23.3 E 3 5 1015.8 - 0.0 - - 10 - - - -
26/10:00am 22.0 NW 5 7 1015.9 - 0.0 - - 10 - - - -
26/09:30am 20.9 NW 6 7 1015.7 - 0.0 - - 10 - - - -
26/09:00am 19.3 NW 5 7 1015.5 - 0.0 - Mostly clear 10 - - - -
26/08:30am 18.2 NW 6 7 1015.2 - 0.0 - Partly cloudy 10 - - - -
26/08:00am 16.5 NW 7 8 1015.0 - 0.0 - Partly cloudy 10 - - - -
26/07:30am 15.5 NW 5 6 1014.7 - 0.0 - Partly cloudy 10 - - - -
26/07:00am 16.0 NW 5 7 1014.4 - 0.0 - - 10 - - - -
26/06:30am 15.9 NW 7 8 1014.2 - 0.0 - - 10 - - - -
26/06:00am 16.0 WNW 8 9 1013.5 - 0.0 - Mostly clear 10 - - - -
26/05:30am 16.0 WNW 7 9 1013.3 - 0.0 - - 10 - - - -
26/05:00am 16.7 WNW 9 10 1013.0 - 0.0 - Partly cloudy 10 - - - -
26/04:30am 17.1 NW 7 8 1012.9 - 0.0 - Partly cloudy 10 - - - -
26/04:00am 17.2 WNW 6 7 1012.7 - 0.0 - Partly cloudy 10 - - - -
26/03:30am 17.9 WNW 6 7 1012.9 - 0.0 - Partly cloudy 10 - - - -
26/03:00am 18.2 W 8 10 1012.9 - 0.0 - - 10 - - - -
26/02:30am 17.1 WNW 6 7 1012.5 - 0.0 - - 10 - - - -
26/02:00am 16.8 NW 5 6 1012.5 - 0.0 - - 10 - - - -
26/01:30am 17.1 NW 5 6 1012.7 - 0.0 - Partly cloudy 10 - - - -
26/01:00am 17.9 NW 3 4 1012.8 - 0.0 - Partly cloudy 10 - - - -
26/12:30am 17.5 CALM 0 4 1012.9 - 0.0 - Partly cloudy 10 - - - -
26/12:00am 18.1 N 4 5 1012.7 - 0.0 - Mostly cloudy 10 - - - -
 
Date/Time
EDT
Temp
°C
Wind Pressure Rain since
9am
mm
Weather Cloud Vis
km
Sea
Height
m
Swell
Dir  Spd
kts
Gust
kts
hPa Trend Height
m
Period
s
Dir
25/11:30pm 17.6 NE 3 5 1013.1 - 0.0 - Cloudy 10 - - - -
25/11:00pm 18.3 E 5 5 1013.1 - 0.0 - - 10 - - - -
25/10:30pm 17.7 N 3 4 1013.1 - 0.0 - - 10 - - - -
25/10:00pm 18.7 NE 4 6 1013.0 - 0.0 - - 10 - - - -
25/09:30pm 19.7 ENE 5 6 1013.1 - 0.0 - - 10 - - - -
25/09:00pm 18.9 E 6 7 1012.7 - 0.0 - - 10 - - - -
25/08:30pm 19.7 ESE 5 6 1012.4 - 0.0 - - 10 - - - -
25/08:00pm 20.5 E 4 5 1012.2 - 0.0 - - 10 - - - -
25/07:30pm 21.3 E 5 6 1011.9 - 0.0 - - 10 - - - -
25/07:00pm 22.8 E 7 9 1011.7 - 0.0 - Partly cloudy 10 - - - -
25/06:30pm 24.4 ESE 10 11 1011.5 - 0.0 - Partly cloudy 10 - - - -
25/06:00pm 25.5 ESE 10 12 1011.3 - 0.0 - Mostly cloudy 10 - - - -
25/05:30pm 26.1 ESE 10 12 1011.3 - 0.0 - - 10 - - - -
25/05:00pm 26.4 ESE 9 13 1011.0 - 0.0 - - 10 - - - -
25/04:30pm 26.3 ESE 11 14 1010.7 - 0.0 - Partly cloudy 10 - - - -
25/04:00pm 26.5 SSE 6 9 1011.2 - 0.0 - Partly cloudy 10 - - - -
25/03:30pm 28.1 NNE 5 9 1011.5 - 0.0 - Partly cloudy 10 - - - -
25/03:00pm 27.0 NNW 4 7 1011.7 - 0.0 - Mostly clear 10 - - - -
25/02:30pm 26.7 NNW 5 11 1011.9 - 0.0 - Partly cloudy 10 - - - -
25/02:00pm 25.8 NW 6 9 1012.2 - 0.0 - Cloudy 10 - - - -
25/01:30pm 25.2 NW 7 9 1012.5 - 0.0 - Partly cloudy 10 - - - -
25/01:00pm 24.3 NW 7 9 1013.0 - 0.0 - Partly cloudy 10 - - - -
25/12:30pm 23.6 NW 8 11 1013.5 - 0.0 - Cloudy 10 - - - -
25/12:00pm 22.6 W 5 7 1013.7 - 0.0 - Mostly cloudy 10 - - - -
25/11:30am 21.6 WSW 6 7 1013.9 - 0.0 - Cloudy 10 - - - -
25/11:00am 20.4 NW 5 7 1014.1 - 0.0 - Partly cloudy 10 - - - -
25/10:30am 18.7 NW 3 5 1013.8 - 0.0 - Cloudy 10 - - - -
25/10:00am 17.9 WNW 4 26 1013.9 - 0.0 - Cloudy 10 - - - -
25/09:30am 16.8 CALM 0 0 1013.7 - 0.0 - Cloudy 10 - - - -
25/09:00am 16.3 S 2 4 1013.4 - 0.0 - Cloudy 10 - - - -
25/08:30am 15.8 NNE 3 3 1013.1 - 0.0 - - 10 - - - -
25/08:00am 15.4 ESE 3 4 1012.5 - 0.0 - - 10 - - - -
25/07:30am 15.1 E 4 5 1012.4 - 0.0 - - 10 - - - -
25/07:00am 14.9 SSE 5 7 1012.7 - 0.0 - - 10 - - - -
25/06:30am 14.6 NNE 4 6 1012.7 - 0.0 - - 10 - - - -
25/06:00am 14.2 NE 5 6 1012.6 - 0.0 - Mostly cloudy 10 - - - -
25/05:30am 14.2 N 3 4 1013.1 - 0.0 - - 10 - - - -
25/05:00am 14.2 NNW 3 4 1013.7 - 0.0 - - 10 - - - -
25/04:30am 13.8 NNW 3 4 1014.0 - 0.0 - - 10 - - - -
25/04:00am 13.8 NNW 5 6 1014.1 - 0.0 - - 10 - - - -
25/03:30am 13.6 NNW 5 6 1014.6 - 0.0 - - 10 - - - -
25/03:00am 13.3 NW 5 5 1014.9 - 0.0 - Mostly clear 10 - - - -
25/02:30am 13.7 CALM 0 0 1015.0 - 0.0 - - 10 - - - -
25/02:00am 14.2 CALM 0 2 1015.0 - 0.0 - - 10 - - - -
25/01:30am 13.6 ESE 1 4 1015.5 - 0.0 - - 10 - - - -
25/01:00am 13.8 CALM 0 0 1015.6 - 0.0 - - 10 - - - -
25/12:30am 14.4 CALM 0 0 1016.0 - 0.0 - - 10 - - - -
25/12:00am 14.4 CALM 0 3 1016.1 - 0.0 - Mostly clear 10 - - - -
 
Date/Time
EDT
Temp
°C
Wind Pressure Rain since
9am
mm
Weather Cloud Vis
km
Sea
Height
m
Swell
Dir  Spd
kts
Gust
kts
hPa Trend Height
m
Period
s
Dir
24/11:30pm 14.7 CALM 0 0 1016.8 - 0.0 - - 10 - - - -
24/11:00pm 15.9 ESE 5 6 1016.7 - 0.0 - - 10 - - - -
24/10:30pm 16.2 E 5 6 1017.0 - 0.0 - - 10 - - - -
24/10:00pm 16.7 E 6 8 1017.3 - 0.0 - - 10 - - - -
24/09:30pm 17.2 E 7 10 1017.5 - 0.0 - - 10 - - - -
24/09:00pm 17.4 E 9 11 1017.9 - 0.0 - Partly cloudy 10 - - - -
24/08:30pm 17.8 E 11 16 1018.2 - 0.0 - - 10 - - - -
24/08:00pm 18.0 E 14 19 1017.5 - 0.0 - Partly cloudy 10 - - - -
24/07:30pm 18.4 E 11 16 1018.5 - 0.0 - Partly cloudy 10 - - - -
24/07:00pm 18.5 E 14 19 1017.8 - 0.0 - Partly cloudy 10 - - - -
24/06:30pm 18.6 E 14 19 1017.7 - 0.0 - - 10 - - - -
24/06:00pm 18.9 E 15 21 1017.7 - 0.0 - - 10 - - - -
24/05:30pm 19.7 E 17 23 1017.6 - 0.0 - - 10 - - - -
24/05:00pm 19.7 E 15 21 1017.9 - 0.0 - - 10 - - - -
24/04:30pm 19.9 E 15 20 1018.3 - 0.0 - Cloudy 10 - - - -
24/04:00pm 20.0 E 15 19 1018.5 - 0.0 - Cloudy 10 - - - -

Other Formats:

Comma delimited format used in spreadsheet applications
http://www.bom.gov.au/fwo/IDV60701/IDV60701.94912.axf

JavaScript Object Notation format (JSON) in row-major order
http://www.bom.gov.au/fwo/IDV60701/IDV60701.94912.json